< < Back
Terminal Aerodrome Forecast


Current Version              Previous Versions:   1  2  3  4  5  6  7  8  9  

Terminal Aerodrome Forecast

230
FTUS42 KMLB 090202 AAA
TAFMCO
TAF AMD
KMCO 090202Z 0902/0924 23011KT P6SM VCSH SCT040 BKN080 BKN200
      WS015/25035KT
     FM090500 28016G24KT P6SM BKN050
     FM091700 27020G30KT P6SM BKN050=

Latest METAR

249
SAUS70 KWBC 090700 RRE
MTRMCO
METAR KMCO 090653Z 28012G23KT 10SM SCT060 BKN080 14/03 A2991 RMK AO2 PK
WND 28029/0617 SLP128 T01390028


USA.gov is the U.S. government's official web portal to all federal, state and local government web resources and services.